Time;durP1;ratioP1;P1;durP2;ratioP2;P2;SDS_P1;SDS_P2;PMS_P1;PMS_P2;Temp;Humidity;BMP_temperature;BMP_pressure;BME280_temperature;BME280_humidity;BME280_pressure;Samples;Min_cycle;Max_cycle;Signal;HPM_P1;HPM_P2
2023/04/07 00:02:17;;;;;;;22.60;8.20;;;;;;;3.86;69.62;100516.76;110455;1268;23221;-56
2023/04/07 00:04:48;;;;;;;27.20;8.50;;;;;;;3.84;69.86;100517.03;110467;1275;22160;-56
2023/04/07 00:07:19;;;;;;;19.50;8.30;;;;;;;3.81;70.05;100513.46;110440;1271;22342;-56
2023/04/07 00:09:50;;;;;;;22.60;8.10;;;;;;;3.79;70.41;100512.80;110497;1264;22182;-56
2023/04/07 00:12:20;;;;;;;21.30;7.50;;;;;;;3.74;71.06;100512.04;110455;1263;22226;-55
2023/04/07 00:14:51;;;;;;;21.70;8.60;;;;;;;3.68;71.41;100512.08;110489;1272;22200;-56
2023/04/07 00:17:22;;;;;;;22.30;6.50;;;;;;;3.59;72.19;100508.25;110474;1267;23224;-58
2023/04/07 00:19:53;;;;;;;23.90;8.60;;;;;;;3.52;72.88;100506.48;110513;1274;22740;-57
2023/04/07 00:22:24;;;;;;;18.90;7.30;;;;;;;3.46;73.00;100505.27;110476;1275;22638;-55
2023/04/07 00:24:54;;;;;;;22.10;8.30;;;;;;;3.39;73.24;100499.81;110476;1263;22197;-58
2023/04/07 00:27:25;;;;;;;20.00;7.50;;;;;;;3.35;73.20;100495.80;110470;1267;23174;-57
2023/04/07 00:29:56;;;;;;;21.20;7.20;;;;;;;3.31;73.90;100494.45;110474;1269;23194;-56
2023/04/07 00:32:27;;;;;;;20.10;8.00;;;;;;;3.26;74.08;100490.45;110458;1267;23278;-56
2023/04/07 00:34:58;;;;;;;23.30;8.40;;;;;;;3.21;74.33;100489.36;110498;1267;22211;-57
2023/04/07 00:37:29;;;;;;;21.50;7.60;;;;;;;3.18;74.83;100486.49;110467;1275;23247;-58
2023/04/07 00:40:00;;;;;;;18.00;7.30;;;;;;;3.17;75.08;100484.64;110480;1268;22300;-58
2023/04/07 00:42:33;;;;;;;23.50;9.40;;;;;;;3.13;75.16;100482.96;110514;1267;22312;-56
2023/04/07 00:45:04;;;;;;;26.30;9.40;;;;;;;3.11;76.18;100479.70;110478;1266;22243;-59
2023/04/07 00:47:35;;;;;;;20.20;8.10;;;;;;;3.09;76.15;100475.32;110458;1268;22312;-55
2023/04/07 00:50:07;;;;;;;23.10;8.70;;;;;;;3.07;75.70;100477.09;110488;1260;22572;-56
2023/04/07 00:52:39;;;;;;;24.30;8.60;;;;;;;3.08;75.72;100477.71;110484;1272;22289;-57
2023/04/07 00:55:11;;;;;;;22.10;9.00;;;;;;;3.09;75.39;100477.45;110442;1272;22127;-58
2023/04/07 00:57:42;;;;;;;22.20;7.30;;;;;;;3.10;77.29;100469.33;110493;1267;22252;-55
2023/04/07 01:00:14;;;;;;;21.30;8.20;;;;;;;3.07;76.85;100463.95;110444;1268;22328;-57
2023/04/07 01:02:52;;;;;;;20.40;8.60;;;;;;;3.04;76.36;100460.21;110432;1269;23292;-57
2023/04/07 01:05:31;;;;;;;20.80;8.80;;;;;;;3.03;77.11;100459.60;110449;1267;22296;-58
2023/04/07 01:08:08;;;;;;;22.90;7.30;;;;;;;3.00;77.40;100460.29;110485;1265;22169;-56
2023/04/07 01:10:48;;;;;;;18.90;7.30;;;;;;;2.98;77.25;100460.80;110483;1275;22166;-56
2023/04/07 01:13:26;;;;;;;19.60;7.10;;;;;;;2.95;77.67;100459.50;110477;1263;22471;-55
2023/04/07 01:16:01;;;;;;;21.60;7.10;;;;;;;2.91;78.15;100460.14;110475;1269;23461;-57
2023/04/07 01:18:35;;;;;;;22.10;8.80;;;;;;;2.87;77.83;100459.02;110436;1263;22494;-57
2023/04/07 01:21:11;;;;;;;23.10;8.50;;;;;;;2.88;77.47;100462.40;110456;1270;22252;-56
2023/04/07 01:24:01;;;;;;;24.40;9.10;;;;;;;2.90;77.51;100465.75;110455;1263;22887;-57
2023/04/07 01:26:33;;;;;;;20.40;7.20;;;;;;;2.91;78.74;100461.63;110441;1270;22381;-57
2023/04/07 01:29:18;;;;;;;22.00;8.40;;;;;;;2.88;78.81;100457.98;110428;1267;23111;-58
2023/04/07 01:31:50;;;;;;;21.80;9.10;;;;;;;2.84;78.72;100456.40;110473;1273;22245;-56
2023/04/07 01:34:22;;;;;;;25.20;10.50;;;;;;;2.80;78.59;100452.14;110423;1270;22875;-56
2023/04/07 01:36:54;;;;;;;23.50;9.70;;;;;;;2.79;78.83;100456.82;110494;1263;23434;-57
2023/04/07 01:39:26;;;;;;;23.10;9.30;;;;;;;2.77;79.01;100454.10;110436;1266;22870;-58
2023/04/07 01:42:01;;;;;;;21.70;9.80;;;;;;;2.73;79.78;100445.27;110432;1270;22162;-56
2023/04/07 01:44:34;;;;;;;22.60;9.50;;;;;;;2.68;80.77;100447.55;110432;1271;22536;-57
2023/04/07 01:47:06;;;;;;;24.20;9.20;;;;;;;2.61;80.68;100442.09;110472;1267;22339;-55
2023/04/07 01:49:38;;;;;;;22.60;9.00;;;;;;;2.57;80.71;100442.71;110452;1275;22287;-58
2023/04/07 01:52:09;;;;;;;24.00;8.90;;;;;;;2.54;80.89;100441.81;110473;1265;22182;-55
2023/04/07 01:54:41;;;;;;;24.20;8.80;;;;;;;2.51;81.04;100442.56;110486;1267;22252;-57
2023/04/07 01:57:12;;;;;;;21.90;8.90;;;;;;;2.47;81.37;100436.83;110448;1263;22813;-58
2023/04/07 01:59:43;;;;;;;23.50;8.00;;;;;;;2.42;81.89;100432.95;110447;1263;22747;-55
2023/04/07 02:02:13;;;;;;;18.70;7.60;;;;;;;2.38;81.80;100431.85;110435;1267;23334;-57
2023/04/07 02:04:54;;;;;;;23.40;9.40;;;;;;;2.34;82.15;100430.02;110444;1263;22242;-57
2023/04/07 02:07:31;;;;;;;24.80;9.30;;;;;;;2.32;81.93;100430.68;110460;1269;22248;-56
2023/04/07 02:10:05;;;;;;;21.80;9.40;;;;;;;2.31;82.21;100427.86;110460;1272;22220;-56
2023/04/07 02:12:39;;;;;;;23.70;9.70;;;;;;;2.30;82.65;100426.70;110470;1269;22320;-57
2023/04/07 02:15:12;;;;;;;22.10;8.90;;;;;;;2.29;82.36;100432.15;110442;1269;22227;-55
2023/04/07 02:17:46;;;;;;;22.50;8.90;;;;;;;2.30;82.39;100430.16;110452;1272;22192;-57
2023/04/07 02:20:18;;;;;;;25.00;11.40;;;;;;;2.30;82.81;100425.60;110469;1260;22160;-57
2023/04/07 02:22:49;;;;;;;24.50;10.40;;;;;;;2.33;82.28;100423.02;110477;1267;22889;-56
2023/04/07 02:25:27;;;;;;;25.40;10.80;;;;;;;2.35;82.80;100414.59;110426;1269;22138;-56
2023/04/07 02:28:00;;;;;;;23.30;9.60;;;;;;;2.37;82.38;100416.59;110447;1264;22224;-58
2023/04/07 02:30:31;;;;;;;24.40;9.30;;;;;;;2.39;82.85;100414.99;110472;1271;22409;-58
2023/04/07 02:33:02;;;;;;;25.70;8.50;;;;;;;2.39;82.59;100413.48;110412;1272;22205;-57
2023/04/07 02:35:33;;;;;;;25.00;10.60;;;;;;;2.39;83.09;100413.33;110459;1272;22406;-57
2023/04/07 02:38:04;;;;;;;25.70;8.70;;;;;;;2.40;83.12;100415.05;110409;1261;22398;-57
2023/04/07 02:40:35;;;;;;;23.30;8.60;;;;;;;2.39;83.06;100413.10;110468;1275;22409;-58
2023/04/07 02:43:06;;;;;;;22.40;9.30;;;;;;;2.38;82.88;100409.17;110447;1272;22114;-55
2023/04/07 02:45:37;;;;;;;21.60;8.60;;;;;;;2.36;83.15;100410.86;110424;1271;22317;-58
2023/04/07 02:48:08;;;;;;;22.70;8.80;;;;;;;2.34;83.58;100407.77;110432;1263;22796;-57
2023/04/07 02:50:40;;;;;;;21.30;8.50;;;;;;;2.32;83.42;100404.70;110449;1263;22162;-56
2023/04/07 02:53:11;;;;;;;25.70;8.60;;;;;;;2.30;83.72;100400.33;110471;1267;22168;-57
2023/04/07 02:55:42;;;;;;;24.40;9.00;;;;;;;2.29;83.81;100405.07;110455;1275;22329;-59
2023/04/07 02:58:12;;;;;;;21.60;7.40;;;;;;;2.28;83.21;100404.14;110507;1263;22964;-55
2023/04/07 03:00:43;;;;;;;20.20;8.00;;;;;;;2.26;83.62;100406.15;110492;1266;22227;-58
2023/04/07 03:03:14;;;;;;;21.00;7.30;;;;;;;2.23;83.87;100397.94;110441;1272;22310;-57
2023/04/07 03:05:45;;;;;;;23.30;8.90;;;;;;;2.20;83.59;100403.88;110432;1272;22338;-57
2023/04/07 03:08:16;;;;;;;22.20;8.70;;;;;;;2.20;83.44;100406.25;107926;1266;22527;-57
2023/04/07 03:10:47;;;;;;;20.90;8.40;;;;;;;2.20;83.52;100417.49;106428;1274;23107;-57
2023/04/07 03:13:18;;;;;;;21.00;7.80;;;;;;;2.21;83.19;100419.61;106406;1273;24386;-56
2023/04/07 03:15:49;;;;;;;25.50;9.70;;;;;;;2.25;83.39;100415.70;106325;1275;24241;-56
2023/04/07 03:18:20;;;;;;;26.60;10.50;;;;;;;2.27;83.31;100414.08;106298;1275;24258;-55
2023/04/07 03:20:54;;;;;;;23.80;9.50;;;;;;;2.29;83.27;100409.88;106351;1267;24246;-57
2023/04/07 03:23:25;;;;;;;23.30;9.80;;;;;;;2.31;83.38;100408.02;110398;1270;22369;-55
2023/04/07 03:25:56;;;;;;;24.10;9.40;;;;;;;2.34;83.44;100406.64;110489;1275;22158;-56
2023/04/07 03:28:27;;;;;;;21.10;8.80;;;;;;;2.35;83.40;100409.38;110446;1267;22921;-57
2023/04/07 03:30:58;;;;;;;22.00;9.30;;;;;;;2.38;83.53;100411.54;110434;1261;22133;-55
2023/04/07 03:33:29;;;;;;;20.20;8.50;;;;;;;2.40;83.56;100414.02;110431;1268;22290;-56
2023/04/07 03:36:00;;;;;;;20.80;8.80;;;;;;;2.41;83.74;100415.51;110412;1272;22296;-57
2023/04/07 03:38:31;;;;;;;25.00;10.70;;;;;;;2.41;83.53;100413.68;110415;1263;22521;-55
2023/04/07 03:41:01;;;;;;;25.40;10.40;;;;;;;2.44;83.65;100409.15;110444;1267;22266;-58
2023/04/07 03:43:32;;;;;;;24.60;9.40;;;;;;;2.45;83.64;100409.44;110452;1275;22361;-58
2023/04/07 03:46:03;;;;;;;29.30;10.20;;;;;;;2.49;83.60;100408.73;110443;1264;22198;-57
2023/04/07 03:48:34;;;;;;;27.00;10.70;;;;;;;2.52;83.72;100408.77;110460;1267;23276;-58
2023/04/07 03:51:05;;;;;;;23.60;9.60;;;;;;;2.53;83.69;100404.84;110452;1267;22445;-56
2023/04/07 03:53:36;;;;;;;21.70;9.80;;;;;;;2.53;83.66;100401.91;110490;1263;22155;-58
2023/04/07 03:56:07;;;;;;;23.70;9.90;;;;;;;2.56;83.80;100402.48;110453;1267;22442;-55
2023/04/07 03:58:41;;;;;;;23.30;9.90;;;;;;;2.57;83.85;100396.65;110488;1274;22340;-57
2023/04/07 04:01:12;;;;;;;24.60;10.40;;;;;;;2.58;83.84;100399.46;110446;1267;22249;-57
2023/04/07 04:03:43;;;;;;;22.50;9.70;;;;;;;2.59;84.03;100396.07;110423;1263;23487;-58
2023/04/07 04:06:14;;;;;;;22.90;9.90;;;;;;;2.62;84.05;100400.50;110446;1267;22227;-58
2023/04/07 04:08:45;;;;;;;22.60;9.20;;;;;;;2.65;84.14;100401.63;110486;1260;22174;-57
2023/04/07 04:11:16;;;;;;;23.90;9.50;;;;;;;2.66;84.47;100400.58;110481;1267;22422;-58
2023/04/07 04:13:46;;;;;;;24.70;10.00;;;;;;;2.63;84.34;100398.74;110419;1275;22301;-58
2023/04/07 04:16:17;;;;;;;24.60;10.40;;;;;;;2.60;84.43;100396.20;110463;1267;22196;-57
2023/04/07 04:18:48;;;;;;;29.50;11.00;;;;;;;2.59;84.49;100400.02;110429;1267;22153;-58
2023/04/07 04:21:19;;;;;;;23.80;9.90;;;;;;;2.56;84.43;100398.94;110443;1267;22219;-57
2023/04/07 04:23:50;;;;;;;25.60;10.90;;;;;;;2.55;84.22;100403.92;110487;1267;22375;-57
2023/04/07 04:26:24;;;;;;;24.30;9.60;;;;;;;2.56;84.41;100403.36;110419;1267;22852;-58
2023/04/07 04:28:55;;;;;;;28.70;10.70;;;;;;;2.53;84.75;100406.40;110446;1275;22917;-56
2023/04/07 04:31:26;;;;;;;26.60;11.60;;;;;;;2.52;84.40;100406.48;110469;1274;23235;-57
2023/04/07 04:33:57;;;;;;;28.40;12.10;;;;;;;2.54;84.56;100407.88;110451;1263;22207;-58
2023/04/07 04:36:28;;;;;;;25.90;11.40;;;;;;;2.53;84.66;100409.30;110469;1264;22150;-58
2023/04/07 04:38:58;;;;;;;24.50;9.60;;;;;;;2.53;84.93;100407.19;110440;1267;22238;-56
2023/04/07 04:41:29;;;;;;;26.50;11.30;;;;;;;2.50;84.84;100405.76;110458;1259;22979;-57
2023/04/07 04:44:00;;;;;;;25.00;9.90;;;;;;;2.49;84.87;100403.16;110421;1260;22176;-57
2023/04/07 04:46:31;;;;;;;24.30;10.60;;;;;;;2.49;85.07;100401.91;110478;1263;22277;-56
2023/04/07 04:49:02;;;;;;;25.80;10.20;;;;;;;2.48;84.87;100403.58;110440;1263;22412;-55
2023/04/07 04:51:33;;;;;;;21.80;9.20;;;;;;;2.47;84.77;100402.02;110438;1267;22409;-56
2023/04/07 04:54:05;;;;;;;24.00;9.30;;;;;;;2.48;84.80;100399.00;110406;1267;22234;-58
2023/04/07 04:56:36;;;;;;;21.60;8.40;;;;;;;2.45;85.16;100397.48;110435;1267;23083;-59
2023/04/07 04:59:07;;;;;;;23.90;9.70;;;;;;;2.41;85.05;100400.23;110428;1267;23071;-56
2023/04/07 05:01:37;;;;;;;25.20;10.30;;;;;;;2.40;84.97;100401.34;110421;1260;22135;-57
2023/04/07 05:04:09;;;;;;;26.30;10.80;;;;;;;2.42;84.82;100405.41;110434;1270;22337;-61
2023/04/07 05:06:39;;;;;;;22.10;9.20;;;;;;;2.47;84.94;100407.98;110435;1267;22300;-55
2023/04/07 05:09:10;;;;;;;23.20;9.10;;;;;;;2.50;84.89;100410.95;107547;1274;25384;-61
2023/04/07 05:11:42;;;;;;;26.40;10.50;;;;;;;2.50;84.84;100408.41;106467;1275;22528;-56
2023/04/07 05:14:13;;;;;;;24.70;10.20;;;;;;;2.51;84.90;100403.43;110397;1267;22158;-57
2023/04/07 05:16:44;;;;;;;28.00;11.00;;;;;;;2.53;84.85;100404.05;110485;1267;22282;-55
2023/04/07 05:19:15;;;;;;;24.00;9.20;;;;;;;2.54;85.09;100402.45;110430;1264;22136;-55
2023/04/07 05:21:46;;;;;;;22.20;8.20;;;;;;;2.51;85.19;100401.71;110455;1264;22241;-56
2023/04/07 05:24:18;;;;;;;24.60;10.10;;;;;;;2.47;85.54;100404.37;110405;1273;22959;-57
2023/04/07 05:26:48;;;;;;;24.80;9.80;;;;;;;2.46;85.16;100406.98;110422;1267;22881;-57
2023/04/07 05:29:19;;;;;;;27.10;10.40;;;;;;;2.48;85.25;100411.30;110456;1261;22351;-57
2023/04/07 05:31:50;;;;;;;31.60;11.20;;;;;;;2.50;85.29;100411.41;110450;1266;22349;-56
2023/04/07 05:34:21;;;;;;;20.70;8.50;;;;;;;2.53;85.41;100408.30;110485;1267;22269;-55
2023/04/07 05:36:52;;;;;;;24.00;9.70;;;;;;;2.51;85.79;100408.26;110454;1267;22715;-56
2023/04/07 05:39:23;;;;;;;23.50;9.30;;;;;;;2.48;85.48;100407.42;110428;1265;22180;-55
2023/04/07 05:41:53;;;;;;;22.30;8.40;;;;;;;2.48;85.60;100405.47;110420;1272;22177;-54
2023/04/07 05:44:24;;;;;;;23.70;9.40;;;;;;;2.45;85.64;100404.48;110473;1273;22200;-57
2023/04/07 05:46:55;;;;;;;21.20;9.00;;;;;;;2.44;85.87;100403.89;110482;1275;22427;-55
2023/04/07 05:49:26;;;;;;;23.10;9.70;;;;;;;2.41;85.78;100403.37;110459;1267;22153;-55
2023/04/07 05:51:57;;;;;;;22.80;8.40;;;;;;;2.42;85.98;100405.64;110447;1264;23102;-55
2023/04/07 05:54:28;;;;;;;28.00;10.10;;;;;;;2.42;86.24;100406.35;110458;1264;22233;-56
2023/04/07 05:56:58;;;;;;;25.30;10.90;;;;;;;2.41;86.50;100409.91;110456;1264;22175;-55
2023/04/07 05:59:30;;;;;;;21.30;8.50;;;;;;;2.39;86.12;100411.05;110443;1266;22427;-58
2023/04/07 06:02:01;;;;;;;26.90;9.60;;;;;;;2.39;86.38;100407.04;110396;1267;22391;-56
2023/04/07 06:04:34;;;;;;;25.60;10.20;;;;;;;2.36;86.50;100408.56;110460;1274;22253;-55
2023/04/07 06:07:05;;;;;;;21.40;8.40;;;;;;;2.38;86.43;100410.98;110441;1267;22244;-55
2023/04/07 06:09:36;;;;;;;25.00;9.50;;;;;;;2.38;86.48;100406.98;110431;1267;22398;-56
2023/04/07 06:12:08;;;;;;;23.50;8.90;;;;;;;2.36;86.77;100405.27;110379;1266;22389;-56
2023/04/07 06:14:39;;;;;;;22.30;9.00;;;;;;;2.34;86.57;100404.83;110414;1267;22173;-54
2023/04/07 06:17:10;;;;;;;22.50;9.00;;;;;;;2.35;86.72;100405.22;110452;1260;22199;-56
2023/04/07 06:19:41;;;;;;;21.10;8.50;;;;;;;2.37;86.89;100406.90;110261;1266;228607;-55
2023/04/07 06:22:12;;;;;;;23.70;10.30;;;;;;;2.40;86.87;100408.36;110414;1267;22123;-55
2023/04/07 06:24:43;;;;;;;24.40;9.90;;;;;;;2.42;86.75;100405.48;110460;1259;22373;-55
2023/04/07 06:27:14;;;;;;;21.90;8.80;;;;;;;2.47;86.82;100409.19;110368;1263;22592;-53
2023/04/07 06:29:45;;;;;;;25.10;10.00;;;;;;;2.50;86.94;100412.05;110408;1263;22213;-54
2023/04/07 06:32:16;;;;;;;24.10;10.10;;;;;;;2.51;86.93;100413.52;110444;1260;23152;-56
2023/04/07 06:34:47;;;;;;;22.10;9.10;;;;;;;2.52;86.94;100412.17;110386;1267;23443;-54
2023/04/07 06:37:18;;;;;;;21.80;9.50;;;;;;;2.50;86.96;100411.89;107713;1251;23080;-54
2023/04/07 06:39:49;;;;;;;20.20;9.40;;;;;;;2.49;86.95;100407.59;106362;1258;24365;-57
2023/04/07 06:42:20;;;;;;;23.60;8.60;;;;;;;2.46;87.47;100406.91;110473;1259;22160;-55
2023/04/07 06:44:51;;;;;;;26.00;8.50;;;;;;;2.43;87.33;100405.63;110451;1267;22283;-54
2023/04/07 06:47:23;;;;;;;27.20;9.30;;;;;;;2.41;87.79;100402.04;110486;1267;22205;-58
2023/04/07 06:49:53;;;;;;;22.70;8.50;;;;;;;2.41;87.85;100400.47;110487;1259;22205;-59
2023/04/07 06:52:24;;;;;;;21.40;8.80;;;;;;;2.39;87.91;100399.70;110438;1264;22248;-57
2023/04/07 06:54:55;;;;;;;22.00;9.30;;;;;;;2.39;88.03;100402.61;110455;1267;22259;-54
2023/04/07 06:57:26;;;;;;;28.40;9.30;;;;;;;2.38;88.33;100402.48;110451;1272;22331;-58
2023/04/07 06:59:57;;;;;;;21.30;8.10;;;;;;;2.37;88.38;100401.70;110446;1272;23601;-54
2023/04/07 07:02:28;;;;;;;22.30;8.20;;;;;;;2.35;88.62;100397.02;110427;1259;22302;-56
2023/04/07 07:04:59;;;;;;;21.90;8.70;;;;;;;2.34;88.42;100394.60;110492;1267;22265;-55
2023/04/07 07:07:29;;;;;;;27.20;10.30;;;;;;;2.35;88.57;100393.23;110467;1270;22500;-54
2023/04/07 07:10:00;;;;;;;23.30;9.50;;;;;;;2.37;88.96;100390.70;110437;1267;22138;-56
2023/04/07 07:12:32;;;;;;;24.20;9.50;;;;;;;2.38;89.27;100390.75;110445;1264;22402;-55
2023/04/07 07:15:03;;;;;;;21.30;8.50;;;;;;;2.39;88.95;100395.63;110461;1267;22199;-54
2023/04/07 07:17:35;;;;;;;25.90;9.90;;;;;;;2.39;88.91;100398.52;110413;1266;22355;-58
2023/04/07 07:20:08;;;;;;;23.20;9.50;;;;;;;2.40;88.82;100392.46;110494;1267;22533;-55
2023/04/07 07:22:38;;;;;;;22.00;8.50;;;;;;;2.39;89.12;100391.05;110470;1275;22203;-56
2023/04/07 07:25:10;;;;;;;27.20;10.20;;;;;;;2.40;89.25;100396.61;110483;1267;22210;-57
2023/04/07 07:27:41;;;;;;;22.20;8.80;;;;;;;2.43;89.61;100396.19;110493;1259;22232;-56
2023/04/07 07:30:13;;;;;;;22.70;8.10;;;;;;;2.46;89.27;100405.01;110451;1267;22941;-56
2023/04/07 07:32:43;;;;;;;21.90;9.00;;;;;;;2.49;89.30;100404.97;110464;1259;22167;-54
2023/04/07 07:35:15;;;;;;;24.10;9.30;;;;;;;2.50;89.26;100406.30;110467;1261;22197;-58
2023/04/07 07:37:46;;;;;;;24.70;9.30;;;;;;;2.52;89.32;100408.95;110466;1267;22243;-56
2023/04/07 07:40:17;;;;;;;25.40;10.70;;;;;;;2.53;89.22;100412.94;110519;1263;22405;-56
2023/04/07 07:42:48;;;;;;;22.10;8.60;;;;;;;2.54;89.30;100412.61;110443;1264;23554;-61
2023/04/07 07:45:19;;;;;;;21.40;8.70;;;;;;;2.56;89.22;100417.29;110458;1267;22494;-58
2023/04/07 07:47:50;;;;;;;27.10;9.90;;;;;;;2.58;89.50;100418.67;110473;1263;22204;-58
2023/04/07 07:50:21;;;;;;;24.30;10.10;;;;;;;2.58;89.27;100419.55;107875;1275;24245;-59
2023/04/07 07:52:52;;;;;;;23.40;8.40;;;;;;;2.58;89.35;100422.70;106670;1275;22630;-59
2023/04/07 07:55:23;;;;;;;22.50;8.30;;;;;;;2.58;89.25;100421.04;106426;1275;25579;-59
2023/04/07 07:57:55;;;;;;;22.40;9.10;;;;;;;2.60;89.60;100422.02;110423;1264;22244;-58
2023/04/07 08:00:27;;;;;;;22.60;7.90;;;;;;;2.60;89.48;100423.05;110444;1267;22224;-60
2023/04/07 08:02:58;;;;;;;19.70;8.40;;;;;;;2.61;89.45;100426.13;110452;1267;23244;-60
2023/04/07 08:05:30;;;;;;;20.80;8.90;;;;;;;2.60;89.46;100423.92;110428;1264;22227;-59
2023/04/07 08:08:01;;;;;;;24.90;8.40;;;;;;;2.61;89.55;100426.90;110418;1267;22306;-60
2023/04/07 08:10:32;;;;;;;24.20;8.80;;;;;;;2.64;89.56;100430.55;110435;1267;22123;-58
2023/04/07 08:13:04;;;;;;;20.60;8.10;;;;;;;2.64;89.82;100426.92;110466;1259;22141;-59
2023/04/07 08:15:34;;;;;;;22.10;8.70;;;;;;;2.64;89.96;100429.98;110431;1259;22374;-58
2023/04/07 08:18:06;;;;;;;23.60;8.70;;;;;;;2.65;89.69;100427.67;110459;1267;23094;-58
2023/04/07 08:20:37;;;;;;;20.90;7.70;;;;;;;2.68;89.77;100426.13;110492;1267;23178;-59
2023/04/07 08:23:08;;;;;;;21.20;8.20;;;;;;;2.72;89.94;100425.50;110444;1267;22529;-57
2023/04/07 08:25:39;;;;;;;22.40;8.10;;;;;;;2.76;89.81;100426.07;110469;1267;22298;-58
2023/04/07 08:28:10;;;;;;;19.40;7.20;;;;;;;2.79;89.67;100425.63;110499;1266;22172;-64
2023/04/07 08:30:41;;;;;;;22.90;7.70;;;;;;;2.80;89.56;100419.29;110452;1267;23021;-58
2023/04/07 08:33:12;;;;;;;22.70;8.10;;;;;;;2.84;89.73;100413.55;110436;1259;22166;-59
2023/04/07 08:35:43;;;;;;;22.90;8.90;;;;;;;2.89;89.90;100407.95;110454;1259;22275;-59
2023/04/07 08:38:14;;;;;;;21.60;8.60;;;;;;;2.96;89.97;100411.28;110433;1267;22448;-59
2023/04/07 08:40:46;;;;;;;20.90;8.70;;;;;;;3.03;90.31;100414.45;110467;1267;23124;-59
2023/04/07 08:43:20;;;;;;;22.50;9.10;;;;;;;3.07;89.91;100419.17;110498;1260;22501;-59
2023/04/07 08:45:52;;;;;;;22.50;10.10;;;;;;;3.07;89.67;100420.02;110481;1267;22299;-59
2023/04/07 08:48:27;;;;;;;22.00;8.70;;;;;;;3.09;90.05;100420.94;109878;1267;22528;-58
2023/04/07 08:51:00;;;;;;;24.00;8.40;;;;;;;3.10;89.91;100411.30;110324;1267;22368;-59
2023/04/07 08:53:37;;;;;;;23.70;9.00;;;;;;;3.15;89.84;100414.28;110372;1263;22908;-58
2023/04/07 08:56:11;;;;;;;19.70;8.50;;;;;;;3.18;90.05;100412.73;110461;1260;22322;-58
2023/04/07 08:58:43;;;;;;;21.80;8.60;;;;;;;3.20;90.26;100416.08;110411;1267;22160;-58
2023/04/07 09:01:15;;;;;;;25.10;7.50;;;;;;;3.20;90.14;100415.83;110463;1269;22208;-60
2023/04/07 09:03:47;;;;;;;20.10;8.30;;;;;;;3.22;89.86;100422.82;110373;1267;22209;-59
2023/04/07 09:06:18;;;;;;;20.70;7.00;;;;;;;3.22;90.20;100422.27;110439;1267;22214;-59
2023/04/07 09:08:50;;;;;;;22.80;8.30;;;;;;;3.24;90.07;100418.20;110429;1259;22308;-58
2023/04/07 09:11:22;;;;;;;18.50;7.10;;;;;;;3.29;90.31;100417.39;110435;1267;22366;-60
2023/04/07 09:13:54;;;;;;;18.20;6.90;;;;;;;3.33;90.19;100413.94;110460;1267;22919;-60
2023/04/07 09:16:28;;;;;;;23.90;7.60;;;;;;;3.38;89.83;100413.10;110445;1267;22231;-58
2023/04/07 09:18:59;;;;;;;16.30;6.20;;;;;;;3.42;90.02;100417.36;110473;1267;22200;-59
2023/04/07 09:21:54;;;;;;;19.00;7.50;;;;;;;3.42;89.86;100420.59;110450;1267;22325;-58
2023/04/07 09:24:27;;;;;;;20.10;7.20;;;;;;;3.39;89.92;100417.02;110422;1266;22202;-60
2023/04/07 09:27:19;;;;;;;21.00;8.30;;;;;;;3.37;89.72;100415.26;110459;1263;22195;-58
2023/04/07 09:29:50;;;;;;;20.60;8.40;;;;;;;3.34;89.85;100418.17;110468;1267;22189;-57
2023/04/07 09:32:38;;;;;;;22.10;8.40;;;;;;;3.30;89.90;100411.45;110453;1267;22158;-58
2023/04/07 09:35:09;;;;;;;20.10;7.70;;;;;;;3.30;90.05;100414.05;110431;1267;22361;-58
2023/04/07 09:37:41;;;;;;;22.90;8.70;;;;;;;3.30;90.43;100410.04;110467;1274;22173;-58
2023/04/07 09:40:33;;;;;;;18.90;8.20;;;;;;;3.31;90.22;100409.07;110442;1272;22327;-60
2023/04/07 09:43:06;;;;;;;22.60;8.10;;;;;;;3.33;90.18;100406.04;110465;1262;22216;-59
2023/04/07 09:45:38;;;;;;;22.60;9.20;;;;;;;3.39;90.64;100411.20;110469;1259;22193;-58
2023/04/07 09:48:19;;;;;;;21.60;8.50;;;;;;;3.47;90.56;100409.52;110421;1267;22524;-58
2023/04/07 09:50:50;;;;;;;19.40;6.80;;;;;;;3.53;90.43;100410.34;110461;1267;22278;-59
2023/04/07 09:53:45;;;;;;;21.00;8.00;;;;;;;3.59;90.34;100410.77;110424;1267;22269;-58
2023/04/07 09:56:18;;;;;;;26.10;8.60;;;;;;;3.60;90.12;100410.11;110505;1260;22183;-57
2023/04/07 09:58:50;;;;;;;21.10;8.80;;;;;;;3.61;90.29;100415.29;110483;1275;22300;-58
2023/04/07 10:01:22;;;;;;;20.60;8.00;;;;;;;3.60;90.35;100413.65;110508;1267;22180;-57
2023/04/07 10:03:55;;;;;;;20.90;8.00;;;;;;;3.60;90.14;100407.52;110479;1269;22679;-57
2023/04/07 10:06:26;;;;;;;22.00;7.60;;;;;;;3.61;90.49;100406.94;110450;1267;22221;-58
2023/04/07 10:08:58;;;;;;;19.90;7.60;;;;;;;3.59;90.22;100405.88;110443;1259;23420;-58
2023/04/07 10:11:31;;;;;;;21.50;8.20;;;;;;;3.58;90.23;100409.19;110448;1259;22455;-60
2023/04/07 10:14:02;;;;;;;21.40;7.90;;;;;;;3.60;90.42;100408.44;110437;1267;22361;-59
2023/04/07 10:16:33;;;;;;;20.90;7.50;;;;;;;3.63;90.66;100408.68;110454;1259;22325;-59
2023/04/07 10:19:06;;;;;;;21.90;7.70;;;;;;;3.67;90.46;100410.03;110465;1259;22892;-60
2023/04/07 10:21:41;;;;;;;19.90;7.50;;;;;;;3.69;90.41;100409.13;110439;1267;22365;-58
2023/04/07 10:24:21;;;;;;;21.20;7.70;;;;;;;3.69;90.51;100405.04;110425;1267;22333;-57
2023/04/07 10:26:56;;;;;;;21.70;7.30;;;;;;;3.69;90.70;100402.03;110459;1267;22189;-58
2023/04/07 10:29:29;;;;;;;19.40;7.00;;;;;;;3.72;90.65;100402.67;110395;1259;22809;-60
2023/04/07 10:32:03;;;;;;;20.90;7.80;;;;;;;3.76;90.76;100396.89;110460;1267;22223;-58
2023/04/07 10:35:00;;;;;;;22.20;8.10;;;;;;;3.79;90.62;100398.00;110438;1268;22329;-60
2023/04/07 10:37:33;;;;;;;21.90;7.50;;;;;;;3.78;91.11;100399.20;110087;1271;23129;-58
2023/04/07 10:40:31;;;;;;;22.20;8.90;;;;;;;3.73;91.31;100401.69;110139;1271;22244;-59
2023/04/07 10:43:02;;;;;;;24.30;8.20;;;;;;;3.71;91.16;100399.46;110109;1271;22274;-57
2023/04/07 10:45:55;;;;;;;20.20;8.50;;;;;;;3.71;91.60;100398.73;110143;1267;22180;-56
2023/04/07 10:48:31;;;;;;;22.00;8.30;;;;;;;3.72;91.43;100398.26;109451;1268;24643;-57
2023/04/07 10:51:16;;;;;;;21.70;8.60;;;;;;;3.72;91.63;100403.92;110125;1264;22216;-58
2023/04/07 10:54:25;;;;;;;19.50;8.10;;;;;;;3.74;91.72;100404.52;110109;1267;22295;-59
2023/04/07 10:57:17;;;;;;;20.60;7.20;;;;;;;3.73;91.99;100406.42;110080;1271;23157;-58
2023/04/07 11:00:16;;;;;;;20.90;7.80;;;;;;;3.72;92.01;100408.04;110067;1271;23401;-58
2023/04/07 11:02:47;;;;;;;20.50;7.50;;;;;;;3.71;91.77;100406.40;110122;1271;22330;-57
2023/04/07 11:05:25;;;;;;;23.10;9.40;;;;;;;3.69;92.33;100410.46;110080;1272;22347;-59
2023/04/07 11:07:57;;;;;;;22.90;9.40;;;;;;;3.68;92.24;100415.86;109969;1272;22309;-58
2023/04/07 11:10:28;;;;;;;22.40;8.80;;;;;;;3.67;92.28;100418.00;110051;1264;22378;-57
2023/04/07 11:13:10;;;;;;;21.80;8.50;;;;;;;3.67;92.42;100414.77;109789;1272;24231;-58
2023/04/07 11:15:41;;;;;;;22.40;7.80;;;;;;;3.71;92.50;100415.16;110340;1269;22205;-59
2023/04/07 11:18:15;;;;;;;21.30;8.90;;;;;;;3.72;92.36;100411.66;110408;1267;22404;-57
2023/04/07 11:20:51;;;;;;;24.20;9.10;;;;;;;3.70;92.38;100408.70;110371;1264;22401;-56
2023/04/07 11:23:24;;;;;;;20.20;7.50;;;;;;;3.70;92.58;100406.83;110437;1263;22971;-59
2023/04/07 11:26:02;;;;;;;20.30;7.70;;;;;;;3.69;92.54;100405.10;109268;1271;25407;-58
2023/04/07 11:28:33;;;;;;;24.00;8.70;;;;;;;3.68;92.85;100401.34;109955;1269;22516;-57
2023/04/07 11:31:06;;;;;;;25.10;9.50;;;;;;;3.68;93.01;100403.47;107828;1259;24312;-58
2023/04/07 11:33:38;;;;;;;21.40;7.50;;;;;;;3.67;93.26;100405.23;110419;1269;22261;-58
2023/04/07 11:36:10;;;;;;;20.00;7.50;;;;;;;3.65;93.04;100402.19;110420;1274;23490;-56
2023/04/07 11:38:42;;;;;;;24.00;8.60;;;;;;;3.66;93.14;100403.52;110488;1269;22199;-59
2023/04/07 11:41:15;;;;;;;22.00;9.10;;;;;;;3.67;93.16;100399.13;110482;1267;22427;-58
2023/04/07 11:43:46;;;;;;;23.70;8.40;;;;;;;3.69;93.22;100403.92;110455;1274;22387;-60